^^
Saratoga-Weather Station Historical Data
Daily Summary for June 20, 2020 Units:  English    Metric   Both
Daily Weekly Monthly Yearly Custom
  High: Low: Average:
Temperature: 94.8 °F 64.2 °F 77.4 °F
Dew Point: 68.2 °F 57.4 °F 63.7 °F
Humidity: 97% 30% 68%
Wind Speed: 8.1mph 0mph 1.1mph
Wind Gust: 11mph - -
Wind- - ESE
Pressure: 29.8 in 29.7 in -
Precipitation: 0.02 in    
Historical Graphs
 
 
Tabular Data for June 20, 2020
Time Temperature Dew Point Pressure Wind Wind Speed Wind Gust Humidity Rainfall Rate (Hourly) solar
00:03 68.2 °F 63.9 °F 29.7 in Calm     86% 0 in 0 W/m2
00:08 68.2 °F 63.9 °F 29.7 in Calm     86% 0 in 0 W/m2
00:13 68.2 °F 63.9 °F 29.7 in Calm     86% 0 in 0 W/m2
00:18 68 °F 64 °F 29.7 in Calm     87% 0 in 0 W/m2
00:23 67.8 °F 63.9 °F 29.7 in Calm     87% 0 in 0 W/m2
00:28 67.6 °F 63.7 °F 29.7 in Calm     87% 0 in 0 W/m2
00:33 67.6 °F 64 °F 29.7 in West 0.9 mph 1 mph 88% 0 in 0 W/m2
00:38 67.5 °F 63.9 °F 29.7 in Calm   1 mph 88% 0 in 0 W/m2
00:43 67.5 °F 63.9 °F 29.7 in Calm     88% 0 in 0 W/m2
00:48 67.3 °F 63.9 °F 29.7 in Calm   1 mph 89% 0 in 0 W/m2
00:53 67.3 °F 63.7 °F 29.7 in Calm     88% 0 in 0 W/m2
00:58 67.3 °F 63.7 °F 29.7 in Calm     88% 0 in 0 W/m2
01:03 67.3 °F 63.9 °F 29.7 in Calm     89% 0 in 0 W/m2
01:08 67.3 °F 63.9 °F 29.7 in Calm     89% 0 in 0 W/m2
01:13 67.3 °F 63.9 °F 29.7 in Calm     89% 0 in 0 W/m2
01:18 67.1 °F 63.7 °F 29.7 in Calm     89% 0 in 0 W/m2
01:23 67.1 °F 63.7 °F 29.8 in West 1 mph 1 mph 89% 0.01 in 0 W/m2
01:28 66.9 °F 63.9 °F 29.8 in Calm     90% 0.02 in 0 W/m2
01:33 66.9 °F 63.9 °F 29.8 in Calm     90% 0.02 in 0 W/m2
01:38 66.7 °F 63.7 °F 29.8 in Calm     90% 0.02 in 0 W/m2
01:43 66.4 °F 63.7 °F 29.8 in Calm     91% 0.02 in 0 W/m2
01:48 66 °F 63.3 °F 29.8 in Calm     91% 0.02 in 0 W/m2
01:53 66 °F 63.3 °F 29.7 in West 2 mph 2 mph 91% 0.02 in 0 W/m2
01:58 65.8 °F 63.5 °F 29.7 in East 0.9 mph 2 mph 92% 0.02 in 0 W/m2
02:03 65.7 °F 63.3 °F 29.7 in East 0.9 mph 2 mph 92% 0.02 in 0 W/m2
02:08 65.7 °F 63.5 °F 29.7 in ENE 0.9 mph 4 mph 93% 0.02 in 0 W/m2
02:13 65.7 °F 63.5 °F 29.7 in East 0.9 mph 3 mph 93% 0.02 in 0 W/m2
02:18 65.7 °F 63.5 °F 29.7 in Calm     93% 0.02 in 0 W/m2
02:23 65.7 °F 63.5 °F 29.7 in Calm     93% 0.02 in 0 W/m2
02:28 65.7 °F 63.5 °F 29.7 in Calm     93% 0.01 in 0 W/m2
02:34 65.7 °F 63.5 °F 29.7 in Calm     93% 0.01 in 0 W/m2
02:39 65.7 °F 63.5 °F 29.7 in Calm     93% 0 in 0 W/m2
02:44 65.5 °F 63.3 °F 29.7 in Calm     93% 0 in 0 W/m2
02:49 65.5 °F 63.7 °F 29.7 in Calm     94% 0 in 0 W/m2
02:54 65.5 °F 63.7 °F 29.7 in Calm     94% 0 in 0 W/m2
02:59 65.3 °F 63.5 °F 29.7 in Calm   1 mph 94% 0 in 0 W/m2
03:04 65.3 °F 63.5 °F 29.7 in Calm     94% 0 in 0 W/m2
03:09 65.1 °F 63.3 °F 29.7 in Calm   1 mph 94% 0 in 0 W/m2
03:14 65.1 °F 63.3 °F 29.7 in Calm     94% 0 in 0 W/m2
03:19 64.9 °F 63.1 °F 29.7 in Calm   1 mph 94% 0 in 0 W/m2
03:24 64.9 °F 63.1 °F 29.7 in Calm     94% 0 in 0 W/m2
03:29 64.9 °F 63.1 °F 29.7 in Calm   1 mph 94% 0 in 0 W/m2
03:34 64.8 °F 63 °F 29.7 in Calm     94% 0 in 0 W/m2
03:39 64.9 °F 63.5 °F 29.7 in Calm     95% 0 in 0 W/m2
03:45 64.9 °F 63.5 °F 29.7 in Calm     95% 0 in 0 W/m2
03:50 64.9 °F 63.5 °F 29.7 in Calm     95% 0 in 0 W/m2
03:55 64.9 °F 63.5 °F 29.7 in Calm     95% 0 in 0 W/m2
04:00 64.8 °F 63.3 °F 29.7 in Calm     95% 0 in 0 W/m2
04:05 64.8 °F 63.3 °F 29.7 in Calm     95% 0 in 0 W/m2
04:10 64.8 °F 63.3 °F 29.7 in Calm     95% 0 in 0 W/m2
04:15 64.8 °F 63.3 °F 29.7 in Calm     95% 0 in 0 W/m2
04:20 64.8 °F 63.3 °F 29.7 in Calm     95% 0 in 0 W/m2
04:25 64.8 °F 63.3 °F 29.7 in Calm     95% 0 in 0 W/m2
04:30 64.8 °F 63.3 °F 29.7 in Calm     95% 0 in 0 W/m2
04:35 64.8 °F 63.3 °F 29.7 in Calm     95% 0 in 0 W/m2
04:40 64.8 °F 63.3 °F 29.7 in Calm     95% 0 in 0 W/m2
04:45 64.6 °F 63.1 °F 29.7 in Calm     95% 0 in 0 W/m2
04:50 64.6 °F 63.1 °F 29.7 in Calm     95% 0 in 0 W/m2
04:55 64.6 °F 63.1 °F 29.7 in Calm     95% 0 in 0 W/m2
05:00 64.6 °F 63.1 °F 29.7 in Calm     95% 0 in 0 W/m2
05:05 64.6 °F 63.1 °F 29.7 in Calm     95% 0 in 0 W/m2
05:10 64.4 °F 63 °F 29.7 in Calm     95% 0 in 0 W/m2
05:15 64.4 °F 63 °F 29.7 in Calm     95% 0 in 0 W/m2
05:20 64.2 °F 62.8 °F 29.7 in Calm     95% 0 in 0 W/m2
05:25 64.2 °F 62.8 °F 29.7 in Calm     95% 0 in 0 W/m2
05:30 64.2 °F 62.8 °F 29.7 in Calm     95% 0 in 0 W/m2
05:35 64.2 °F 63.1 °F 29.7 in Calm     96% 0 in 0 W/m2
05:40 64.2 °F 63.1 °F 29.7 in Calm     96% 0 in 0 W/m2
05:45 64.2 °F 63.1 °F 29.7 in Calm     96% 0 in 0 W/m2
05:50 64.2 °F 63.1 °F 29.7 in Calm     96% 0 in 0 W/m2
05:55 64.6 °F 63.5 °F 29.7 in Calm     96% 0 in 0 W/m2
06:00 64.6 °F 63.5 °F 29.7 in Calm     96% 0 in 0 W/m2
06:05 64.6 °F 63.5 °F 29.7 in Calm     96% 0 in 0 W/m2
06:10 64.6 °F 63.5 °F 29.7 in Calm     96% 0 in 0 W/m2
06:15 64.6 °F 63.5 °F 29.7 in Calm     96% 0 in 0 W/m2
06:20 64.6 °F 63.5 °F 29.7 in Calm     96% 0 in 0 W/m2
06:25 64.4 °F 63.3 °F 29.7 in Calm     96% 0 in 0 W/m2
06:30 64.4 °F 63.3 °F 29.7 in Calm     96% 0 in 0 W/m2
06:35 64.6 °F 63.5 °F 29.7 in Calm     96% 0 in 0 W/m2
06:40 64.6 °F 63.5 °F 29.7 in Calm     96% 0 in 0 W/m2
06:45 64.6 °F 63.5 °F 29.7 in Calm     96% 0 in 5 W/m2
06:50 64.6 °F 63.5 °F 29.7 in Calm     96% 0 in 11 W/m2
06:55 64.6 °F 63.5 °F 29.7 in Calm     96% 0 in 9 W/m2
07:00 64.6 °F 63.5 °F 29.7 in Calm     96% 0 in 9 W/m2
07:05 64.8 °F 63.7 °F 29.8 in Calm     96% 0 in 12 W/m2
07:10 64.8 °F 63.7 °F 29.7 in Calm     96% 0 in 18 W/m2
07:15 64.8 °F 63.7 °F 29.8 in Calm     96% 0 in 28 W/m2
07:20 64.9 °F 63.9 °F 29.8 in Calm     96% 0 in 35 W/m2
07:25 64.9 °F 63.9 °F 29.8 in Calm     96% 0 in 32 W/m2
07:30 64.9 °F 64 °F 29.8 in Calm     97% 0 in 35 W/m2
07:35 65.1 °F 64.2 °F 29.8 in Calm     97% 0 in 40 W/m2
07:40 65.1 °F 64.2 °F 29.8 in Calm   1 mph 97% 0 in 44 W/m2
07:45 65.3 °F 64 °F 29.8 in Calm   2 mph 96% 0 in 53 W/m2
07:50 65.5 °F 64.2 °F 29.8 in Calm   1 mph 96% 0 in 63 W/m2
07:55 65.5 °F 64.2 °F 29.8 in Calm   2 mph 96% 0 in 74 W/m2
08:00 65.7 °F 64.4 °F 29.7 in ENE 0.9 mph 2 mph 96% 0 in 77 W/m2
08:05 65.8 °F 64.6 °F 29.8 in Calm     96% 0 in 69 W/m2
08:10 66 °F 64.8 °F 29.8 in Calm   1 mph 96% 0 in 54 W/m2
08:15 66.2 °F 64.9 °F 29.8 in ENE 0.9 mph 2 mph 96% 0 in 47 W/m2
08:20 66.4 °F 65.1 °F 29.8 in Calm     96% 0 in 44 W/m2
08:25 66.6 °F 65.3 °F 29.8 in ENE 2 mph 2 mph 96% 0 in 37 W/m2
08:30 66.9 °F 65.7 °F 29.8 in Calm   1 mph 96% 0 in 69 W/m2
08:35 67.5 °F 66.2 °F 29.8 in ENE 0.9 mph 1 mph 96% 0 in 118 W/m2
08:40 68 °F 66.6 °F 29.8 in NW 2.9 mph 4 mph 95% 0 in 114 W/m2
08:45 68.5 °F 66.7 °F 29.8 in NE 0.9 mph 2 mph 94% 0 in 114 W/m2
08:50 68.7 °F 66.6 °F 29.8 in Calm   2 mph 93% 0 in 359 W/m2
08:55 69.4 °F 67.1 °F 29.8 in ENE 0.9 mph 3 mph 92% 0 in 199 W/m2
09:00 69.8 °F 66.7 °F 29.8 in Calm   1 mph 90% 0 in 120 W/m2
09:05 70.2 °F 66.7 °F 29.8 in East 0.9 mph 1 mph 89% 0 in 113 W/m2
09:10 70.3 °F 66.9 °F 29.8 in Calm     89% 0 in 123 W/m2
09:15 70.5 °F 67.1 °F 29.8 in ENE 2 mph 3 mph 89% 0 in 179 W/m2
09:20 70.9 °F 67.1 °F 29.8 in ENE 0.9 mph 2 mph 88% 0 in 146 W/m2
09:26 71.1 °F 66.9 °F 29.8 in Calm   1 mph 87% 0 in 123 W/m2
09:31 71.2 °F 67.1 °F 29.8 in Calm     87% 0 in 128 W/m2
09:36 71.4 °F 67.1 °F 29.8 in Calm   2 mph 86% 0 in 81 W/m2
09:41 71.4 °F 67.1 °F 29.8 in Calm   2 mph 86% 0 in 76 W/m2
09:46 71.8 °F 66.7 °F 29.8 in North 0.9 mph 2 mph 84% 0 in 436 W/m2
09:51 72.3 °F 66.9 °F 29.8 in ENE 0.9 mph 3 mph 83% 0 in 450 W/m2
09:56 72.9 °F 66.7 °F 29.8 in NE 0.9 mph 3 mph 81% 0 in 459 W/m2
10:01 73.2 °F 67.1 °F 29.8 in ENE 0.9 mph 5 mph 81% 0 in 489 W/m2
10:06 73.6 °F 66.4 °F 29.8 in NE 2 mph 4 mph 78% 0 in 508 W/m2
10:11 73.8 °F 66.4 °F 29.8 in ENE 2 mph 4 mph 78% 0 in 526 W/m2
10:16 74.5 °F 66.7 °F 29.8 in Calm   3 mph 77% 0 in 592 W/m2
10:21 75 °F 66.9 °F 29.8 in ENE 4.9 mph 5 mph 76% 0 in 322 W/m2
10:26 75.7 °F 67.6 °F 29.8 in Calm   3 mph 76% 0 in 575 W/m2
10:31 76.6 °F 67.6 °F 29.8 in NE 4 mph 4 mph 74% 0 in 547 W/m2
10:36 76.8 °F 67.1 °F 29.8 in ENE 2 mph 5 mph 72% 0 in 552 W/m2
10:41 77.2 °F 68.2 °F 29.8 in ENE 2.9 mph 4 mph 74% 0 in 559 W/m2
10:46 77.4 °F 67.6 °F 29.8 in NNE 2 mph 2 mph 72% 0 in 570 W/m2
10:51 77.7 °F 67.6 °F 29.8 in Calm   2 mph 71% 0 in 580 W/m2
10:56 78.3 °F 67.6 °F 29.8 in Calm   4 mph 70% 0 in 592 W/m2
11:01 78.4 °F 66.9 °F 29.8 in East 0.9 mph 3 mph 68% 0 in 601 W/m2
11:06 79 °F 67.5 °F 29.8 in Calm   3 mph 68% 0 in 613 W/m2
11:11 79.2 °F 67.3 °F 29.8 in Calm   3 mph 67% 0 in 622 W/m2
11:16 79.7 °F 67.3 °F 29.8 in ENE 0.9 mph 3 mph 66% 0 in 633 W/m2
11:21 80.2 °F 66.6 °F 29.8 in ENE 2 mph 6 mph 63% 0 in 645 W/m2
11:26 80.6 °F 67.8 °F 29.8 in NW 2 mph 3 mph 65% 0 in 654 W/m2
11:31 81 °F 67.1 °F 29.8 in NNE 2 mph 6 mph 63% 0 in 663 W/m2
11:36 81 °F 68 °F 29.8 in Calm   3 mph 65% 0 in 668 W/m2
11:41 81.1 °F 66.9 °F 29.8 in NE 2 mph 4 mph 62% 0 in 680 W/m2
11:46 81.7 °F 66.9 °F 29.8 in ESE 0.9 mph 6 mph 61% 0 in 687 W/m2
11:51 82 °F 67.3 °F 29.8 in North 0.9 mph 6 mph 61% 0 in 694 W/m2
11:56 82.4 °F 66.6 °F 29.8 in ESE 0.9 mph 4 mph 59% 0 in 705 W/m2
12:01 82.9 °F 66.6 °F 29.8 in ESE 0.9 mph 3 mph 58% 0 in 712 W/m2
12:06 83.1 °F 66.4 °F 29.8 in Calm   4 mph 57% 0 in 719 W/m2
12:11 83.3 °F 66.6 °F 29.8 in North 2.9 mph 3 mph 57% 0 in 724 W/m2
12:16 83.8 °F 66.4 °F 29.8 in ENE 4.9 mph 6 mph 56% 0 in 733 W/m2
12:21 84 °F 66.6 °F 29.8 in NNE 2.9 mph 5 mph 56% 0 in 745 W/m2
12:26 84 °F 66.2 °F 29.8 in NE 2 mph 4 mph 55% 0 in 752 W/m2
12:31 84.6 °F 66 °F 29.8 in NNE 2.9 mph 6 mph 54% 0 in 749 W/m2
12:36 84.7 °F 66.2 °F 29.8 in NNW 0.9 mph 3 mph 54% 0 in 758 W/m2
12:41 85.1 °F 67.1 °F 29.8 in Calm   5 mph 55% 0 in 763 W/m2
12:46 85.6 °F 66 °F 29.8 in Calm   7 mph 52% 0 in 768 W/m2
12:51 85.8 °F 66.7 °F 29.8 in NNW 0.9 mph 6 mph 53% 0 in 772 W/m2
12:56 86.4 °F 66 °F 29.8 in NW 2 mph 6 mph 51% 0 in 775 W/m2
13:01 86.5 °F 65.7 °F 29.8 in ENE 4 mph 11 mph 50% 0 in 780 W/m2
13:06 87.1 °F 66.2 °F 29.7 in NE 2 mph 6 mph 50% 0 in 779 W/m2
13:11 87.3 °F 67.5 °F 29.7 in ENE 2.9 mph 11 mph 52% 0 in 786 W/m2
13:16 87.4 °F 66.6 °F 29.7 in Calm   2 mph 50% 0 in 795 W/m2
13:21 87.8 °F 66.2 °F 29.7 in NE 2 mph 7 mph 49% 0 in 798 W/m2
13:26 87.8 °F 65.7 °F 29.7 in Calm   4 mph 48% 0 in 803 W/m2
13:31 88 °F 65.3 °F 29.7 in NNE 4 mph 7 mph 47% 0 in 798 W/m2
13:36 88.3 °F 66.2 °F 29.7 in NE 4 mph 4 mph 48% 0 in 835 W/m2
13:41 88.5 °F 65.1 °F 29.7 in NNE 2.9 mph 4 mph 46% 0 in 796 W/m2
13:46 88.5 °F 65.1 °F 29.7 in Calm   2 mph 46% 0 in 464 W/m2
13:51 88.3 °F 65.5 °F 29.7 in NE 0.9 mph 3 mph 47% 0 in 545 W/m2
13:57 88.2 °F 65.3 °F 29.7 in ESE 2.9 mph 4 mph 47% 0 in 355 W/m2
14:02 88 °F 64.6 °F 29.7 in ENE 2 mph 8 mph 46% 0 in 422 W/m2
14:07 88 °F 64.6 °F 29.7 in NE 2.9 mph 8 mph 46% 0 in 663 W/m2
14:12 88.3 °F 64.2 °F 29.7 in Calm   4 mph 45% 0 in 902 W/m2
14:17 89.1 °F 64.9 °F 29.7 in NE 2 mph 4 mph 45% 0 in 835 W/m2
14:22 90 °F 65.1 °F 29.7 in ENE 2.9 mph 4 mph 44% 0 in 867 W/m2
14:27 90.5 °F 64.2 °F 29.7 in ENE 2.9 mph 6 mph 42% 0 in 559 W/m2
14:32 90.9 °F 66.6 °F 29.7 in ESE 2.9 mph 4 mph 45% 0 in 397 W/m2
14:37 90.9 °F 65.3 °F 29.7 in NNE 2 mph 7 mph 43% 0 in 357 W/m2
14:42 90.7 °F 64.4 °F 29.7 in WNW 0.9 mph 4 mph 42% 0 in 666 W/m2
14:47 90.5 °F 64.9 °F 29.7 in SE 2 mph 4 mph 43% 0 in 285 W/m2
14:57 90.9 °F 62.4 °F 29.7 in East 2 mph 8 mph 39% 0 in 858 W/m2
15:02 91.2 °F 63.5 °F 29.7 in East 6.9 mph 7 mph 40% 0 in 854 W/m2
15:07 91.8 °F 64 °F 29.7 in West 0.9 mph 2 mph 40% 0 in 803 W/m2
15:12 91.9 °F 63.5 °F 29.7 in WSW 4.9 mph 6 mph 39% 0 in 770 W/m2
15:17 91.2 °F 62.8 °F 29.7 in NE 4 mph 4 mph 39% 0 in 197 W/m2
15:22 90.7 °F 63.7 °F 29.7 in NE 4.9 mph 5 mph 41% 0 in 193 W/m2
15:27 90.1 °F 63.3 °F 29.7 in SSE 0.9 mph 4 mph 41% 0 in 160 W/m2
15:32 89.8 °F 62.2 °F 29.7 in ENE 2.9 mph 4 mph 40% 0 in 172 W/m2
15:37 89.4 °F 64 °F 29.7 in SE 2 mph 3 mph 43% 0 in 172 W/m2
15:42 89.1 °F 62.2 °F 29.7 in East 2 mph 3 mph 41% 0 in 186 W/m2
15:47 88.5 °F 64.4 °F 29.7 in ENE 0.9 mph 4 mph 45% 0 in 185 W/m2
15:52 88.5 °F 65.7 °F 29.7 in Calm   1 mph 47% 0 in 420 W/m2
15:57 88.9 °F 64.8 °F 29.7 in NNE 0.9 mph 2 mph 45% 0 in 320 W/m2
16:02 89.6 °F 63.5 °F 29.7 in East 2.9 mph 6 mph 42% 0 in 763 W/m2
16:07 90.9 °F 63.1 °F 29.7 in NE 0.9 mph 2 mph 40% 0 in 691 W/m2
16:12 91.8 °F 62.6 °F 29.7 in NNE 2 mph 3 mph 38% 0 in 661 W/m2
16:17 92.5 °F 63.1 °F 29.7 in ESE 6.9 mph 7 mph 38% 0 in 657 W/m2
16:22 92.8 °F 63.5 °F 29.7 in SSE 2.9 mph 3 mph 38% 0 in 677 W/m2
16:27 92.8 °F 64.2 °F 29.7 in NW 2 mph 4 mph 39% 0 in 645 W/m2
16:32 93 °F 63 °F 29.7 in NNW 2.9 mph 3 mph 37% 0 in 629 W/m2
16:37 92.8 °F 61.9 °F 29.7 in SSE 0.9 mph 5 mph 36% 0 in 165 W/m2
16:42 92.8 °F 62.8 °F 29.7 in WNW 0.9 mph 2 mph 37% 0 in 691 W/m2
16:47 93 °F 61.3 °F 29.7 in NNW 0.9 mph 3 mph 35% 0 in 700 W/m2
16:52 93.7 °F 61.9 °F 29.7 in Calm   8 mph 35% 0 in 636 W/m2
16:57 94.3 °F 61.5 °F 29.7 in East 4.9 mph 7 mph 34% 0 in 592 W/m2
17:02 94.3 °F 59.9 °F 29.7 in NNE 2 mph 11 mph 32% 0 in 571 W/m2
17:07 93.9 °F 59.5 °F 29.7 in ENE 2 mph 6 mph 32% 0 in 564 W/m2
17:12 94.1 °F 62.2 °F 29.7 in NE 0.9 mph 10 mph 35% 0 in 568 W/m2
17:17 94.5 °F 60.1 °F 29.7 in NNE 4 mph 8 mph 32% 0 in 564 W/m2
17:22 94.6 °F 59.4 °F 29.7 in SSE 2.9 mph 9 mph 31% 0 in 538 W/m2
17:27 94.6 °F 60.3 °F 29.7 in ENE 2 mph 3 mph 32% 0 in 457 W/m2
17:32 94.8 °F 58.5 °F 29.7 in East 8.1 mph 8 mph 30% 0 in 490 W/m2
17:37 94.6 °F 59.4 °F 29.7 in East 2 mph 5 mph 31% 0 in 475 W/m2
17:42 94.6 °F 59.4 °F 29.7 in East 2.9 mph 7 mph 31% 0 in 475 W/m2
17:47 94.6 °F 58.5 °F 29.7 in East 0.9 mph 7 mph 30% 0 in 415 W/m2
17:52 94.5 °F 58.3 °F 29.7 in NNE 0.9 mph 9 mph 30% 0 in 445 W/m2
17:57 94.3 °F 61.5 °F 29.7 in WNW 2 mph 3 mph 34% 0 in 316 W/m2
18:02 93.9 °F 61.3 °F 29.7 in SE 0.9 mph 3 mph 34% 0 in 246 W/m2
18:07 93.6 °F 61 °F 29.7 in SW 0.9 mph 2 mph 34% 0 in 221 W/m2
18:12 93.4 °F 62.4 °F 29.7 in WSW 0.9 mph 2 mph 36% 0 in 345 W/m2
18:17 93 °F 59.7 °F 29.7 in SW 0.9 mph 2 mph 33% 0 in 359 W/m2
18:22 92.8 °F 58.6 °F 29.7 in NNE 0.9 mph 4 mph 32% 0 in 114 W/m2
18:27 92.5 °F 57.4 °F 29.7 in ENE 2.9 mph 6 mph 31% 0 in 123 W/m2
18:32 92.7 °F 58.5 °F 29.7 in NE 2 mph 4 mph 32% 0 in 350 W/m2
18:37 92.7 °F 59.4 °F 29.7 in SSW 2.9 mph 4 mph 33% 0 in 123 W/m2
18:42 92.5 °F 57.4 °F 29.7 in SSW 0.9 mph 4 mph 31% 0 in 70 W/m2
18:47 91.8 °F 62.6 °F 29.7 in South 2 mph 3 mph 38% 0 in 76 W/m2
18:52 90.7 °F 62.2 °F 29.7 in Calm   1 mph 39% 0 in 86 W/m2
18:57 90 °F 63.1 °F 29.7 in South 0.9 mph 2 mph 41% 0 in 167 W/m2
19:02 89.2 °F 63.9 °F 29.7 in South 0.9 mph 1 mph 43% 0 in 223 W/m2
19:07 88.9 °F 64.2 °F 29.7 in Calm   2 mph 44% 0 in 137 W/m2
19:12 88.5 °F 63.1 °F 29.7 in Calm   1 mph 43% 0 in 63 W/m2
19:17 87.8 °F 63.1 °F 29.7 in SE 0.9 mph 1 mph 44% 0 in 33 W/m2
19:22 87.3 °F 64 °F 29.7 in Calm   1 mph 46% 0 in 30 W/m2
19:27 86.2 °F 63.5 °F 29.7 in Calm     47% 0 in 21 W/m2
19:32 85.5 °F 63.5 °F 29.7 in South 0.9 mph 1 mph 48% 0 in 19 W/m2
19:37 84.6 °F 62.1 °F 29.7 in South 0.9 mph 2 mph 47% 0 in 18 W/m2
19:42 83.8 °F 62.1 °F 29.7 in Calm   1 mph 48% 0 in 18 W/m2
19:47 82.9 °F 61.9 °F 29.7 in South 2 mph 2 mph 49% 0 in 21 W/m2
19:52 82.2 °F 62.2 °F 29.7 in Calm   3 mph 51% 0 in 21 W/m2
19:57 81.9 °F 61.9 °F 29.7 in South 0.9 mph 1 mph 51% 0 in 19 W/m2
20:02 81.3 °F 62.6 °F 29.7 in Calm   1 mph 53% 0 in 19 W/m2
20:07 81 °F 62.2 °F 29.7 in South 0.9 mph 2 mph 53% 0 in 25 W/m2
20:12 80.4 °F 61.7 °F 29.7 in Calm   1 mph 53% 0 in 25 W/m2
20:17 80.2 °F 62.1 °F 29.7 in Calm   2 mph 54% 0 in 18 W/m2
20:22 80.1 °F 61.3 °F 29.7 in Calm   1 mph 53% 0 in 12 W/m2
20:27 79.9 °F 61.7 °F 29.7 in Calm   1 mph 54% 0 in 9 W/m2
20:32 79.5 °F 61.9 °F 29.7 in Calm   1 mph 55% 0 in 5 W/m2
20:37 79.3 °F 62.2 °F 29.7 in South 0.9 mph 1 mph 56% 0 in 0 W/m2
20:42 79 °F 61.5 °F 29.7 in South 0.9 mph 1 mph 55% 0 in 0 W/m2
20:47 78.6 °F 61.2 °F 29.7 in Calm   1 mph 55% 0 in 0 W/m2
20:52 78.4 °F 61 °F 29.7 in South 0.9 mph 1 mph 55% 0 in 0 W/m2
20:57 78.3 °F 61.3 °F 29.7 in Calm   1 mph 56% 0 in 0 W/m2
21:02 78.3 °F 60.8 °F 29.7 in Calm   1 mph 55% 0 in 0 W/m2
21:08 78.1 °F 61.2 °F 29.7 in Calm     56% 0 in 0 W/m2
21:13 78.1 °F 61.2 °F 29.7 in Calm   1 mph 56% 0 in 0 W/m2
21:18 78.1 °F 61.5 °F 29.7 in Calm     57% 0 in 0 W/m2
21:23 77.9 °F 61.5 °F 29.7 in Calm     57% 0 in 0 W/m2
21:28 77.7 °F 61.3 °F 29.7 in Calm     57% 0 in 0 W/m2
21:33 77.7 °F 61.3 °F 29.7 in Calm   1 mph 57% 0 in 0 W/m2
21:38 77.5 °F 61.2 °F 29.7 in Calm     57% 0 in 0 W/m2
21:43 77.5 °F 61.2 °F 29.7 in Calm     57% 0 in 0 W/m2
21:48 77.4 °F 61.3 °F 29.7 in Calm   1 mph 58% 0 in 0 W/m2
21:53 77.2 °F 62.2 °F 29.7 in South 0.9 mph 1 mph 60% 0 in 0 W/m2
21:58 77.2 °F 60.8 °F 29.7 in Calm   2 mph 57% 0 in 0 W/m2
22:03 77.7 °F 60.3 °F 29.7 in South 2.9 mph 9 mph 55% 0 in 0 W/m2
22:08 78.6 °F 61.2 °F 29.7 in West 2 mph 5 mph 55% 0 in 0 W/m2
22:13 79.2 °F 60.6 °F 29.7 in NW 0.9 mph 9 mph 53% 0 in 0 W/m2
22:18 80.1 °F 61.3 °F 29.7 in ENE 2 mph 6 mph 53% 0 in 0 W/m2
22:23 81.1 °F 62.4 °F 29.7 in Calm   2 mph 53% 0 in 0 W/m2
22:28 81.5 °F 62.2 °F 29.7 in NNE 2 mph 7 mph 52% 0 in 0 W/m2
22:33 81.9 °F 61.9 °F 29.7 in East 2.9 mph 4 mph 51% 0 in 0 W/m2
22:38 82.2 °F 62.2 °F 29.7 in NNE 2.9 mph 7 mph 51% 0 in 0 W/m2
22:43 82.6 °F 62.6 °F 29.7 in NE 4 mph 5 mph 51% 0 in 0 W/m2
22:48 82.8 °F 62.8 °F 29.7 in East 4 mph 4 mph 51% 0 in 0 W/m2
22:53 82.8 °F 62.8 °F 29.7 in ESE 2 mph 9 mph 51% 0 in 0 W/m2
22:59 82.9 °F 63 °F 29.7 in ENE 4 mph 7 mph 51% 0 in 0 W/m2
23:04 82.9 °F 62.4 °F 29.7 in SE 2.9 mph 9 mph 50% 0 in 0 W/m2
23:09 82.9 °F 63 °F 29.7 in ENE 0.9 mph 7 mph 51% 0 in 0 W/m2
23:14 82.8 °F 62.8 °F 29.7 in ENE 2 mph 4 mph 51% 0 in 0 W/m2
23:19 82.6 °F 62.6 °F 29.7 in ENE 4 mph 5 mph 51% 0 in 0 W/m2
23:24 82.6 °F 62.6 °F 29.7 in SE 2.9 mph 7 mph 51% 0 in 0 W/m2
23:29 82.2 °F 63.3 °F 29.7 in East 6 mph 6 mph 53% 0 in 0 W/m2
23:34 81.9 °F 62.4 °F 29.7 in East 2.9 mph 9 mph 52% 0 in 0 W/m2
23:39 81.7 °F 63 °F 29.7 in ESE 2 mph 5 mph 53% 0 in 0 W/m2
23:44 81.5 °F 63.3 °F 29.7 in East 2.9 mph 6 mph 54% 0 in 0 W/m2
23:49 80.8 °F 64.6 °F 29.7 in SSW 0.9 mph 2 mph 58% 0 in 0 W/m2
23:54 79.9 °F 64.8 °F 29.7 in West 2 mph 2 mph 60% 0 in 0 W/m2
23:59 78.6 °F 64.6 °F 29.7 in Calm   2 mph 62% 0 in 0 W/m2
Juneau County Weather
Compliments of Weather Underground - 4 mb